Terminal Aerodrome Forecast
Issued by NWS

Home | Current Version | Previous Version | Text Only | Print | Product List | Glossary On
Versions: 1 2 3 4 5 6 7 8 9 10 11 12 13 14
000
FTUS45 KLKN 261120
TAFEKO
TAF
KEKO 261120Z 2612/2712 VRB06KT P6SM FEW150 SCT200
     FM261700 23006KT P6SM SCT060 BKN080
     FM262000 24010G20KT P6SM SCT040 BKN060
     FM270200 24006KT P6SM VCSH BKN040
     FM270900 VRB04KT P6SM -RA SCT025 BKN035=

USA.gov is the U.S. government's official web portal to all federal, state and local government web resources and services.